sensor_id;sensor_type;location;lat;lon;timestamp;P1;durP1;ratioP1;P2;durP2;ratioP2
20324;SDS011;10320;49.482;11.256;2022-07-06T00:01:42;3.23;;;2.60;;
20324;SDS011;10320;49.482;11.256;2022-07-06T00:04:08;2.73;;;2.53;;
20324;SDS011;10320;49.482;11.256;2022-07-06T00:06:34;2.50;;;2.30;;
20324;SDS011;10320;49.482;11.256;2022-07-06T00:09:01;2.77;;;2.50;;
20324;SDS011;10320;49.482;11.256;2022-07-06T00:11:27;2.57;;;2.37;;
20324;SDS011;10320;49.482;11.256;2022-07-06T00:13:53;2.87;;;2.67;;
20324;SDS011;10320;49.482;11.256;2022-07-06T00:16:21;2.57;;;2.33;;
20324;SDS011;10320;49.482;11.256;2022-07-06T00:18:47;3.10;;;2.33;;
20324;SDS011;10320;49.482;11.256;2022-07-06T00:21:14;3.30;;;2.70;;
20324;SDS011;10320;49.482;11.256;2022-07-06T00:23:40;2.90;;;2.60;;
20324;SDS011;10320;49.482;11.256;2022-07-06T00:26:06;2.77;;;2.57;;
20324;SDS011;10320;49.482;11.256;2022-07-06T00:28:33;4.27;;;3.00;;
20324;SDS011;10320;49.482;11.256;2022-07-06T00:30:59;2.63;;;2.43;;
20324;SDS011;10320;49.482;11.256;2022-07-06T00:33:25;3.10;;;2.80;;
20324;SDS011;10320;49.482;11.256;2022-07-06T00:35:51;2.97;;;2.67;;
20324;SDS011;10320;49.482;11.256;2022-07-06T00:38:17;2.77;;;2.57;;
20324;SDS011;10320;49.482;11.256;2022-07-06T00:40:43;3.23;;;2.93;;
20324;SDS011;10320;49.482;11.256;2022-07-06T00:43:09;3.97;;;3.07;;
20324;SDS011;10320;49.482;11.256;2022-07-06T00:45:35;4.10;;;3.40;;
20324;SDS011;10320;49.482;11.256;2022-07-06T00:48:02;4.10;;;3.10;;
20324;SDS011;10320;49.482;11.256;2022-07-06T00:50:28;3.67;;;3.37;;
20324;SDS011;10320;49.482;11.256;2022-07-06T00:52:55;3.53;;;3.20;;
20324;SDS011;10320;49.482;11.256;2022-07-06T00:55:22;3.80;;;3.30;;
20324;SDS011;10320;49.482;11.256;2022-07-06T00:57:48;3.50;;;3.20;;
20324;SDS011;10320;49.482;11.256;2022-07-06T01:00:15;3.50;;;3.20;;
20324;SDS011;10320;49.482;11.256;2022-07-06T01:02:42;3.60;;;3.30;;
20324;SDS011;10320;49.482;11.256;2022-07-06T01:05:09;4.17;;;3.77;;
20324;SDS011;10320;49.482;11.256;2022-07-06T01:07:36;3.93;;;3.50;;
20324;SDS011;10320;49.482;11.256;2022-07-06T01:10:03;4.17;;;3.60;;
20324;SDS011;10320;49.482;11.256;2022-07-06T01:12:29;4.80;;;4.40;;
20324;SDS011;10320;49.482;11.256;2022-07-06T01:14:56;4.50;;;3.80;;
20324;SDS011;10320;49.482;11.256;2022-07-06T01:17:22;4.63;;;3.93;;
20324;SDS011;10320;49.482;11.256;2022-07-06T01:19:49;4.00;;;3.70;;
20324;SDS011;10320;49.482;11.256;2022-07-06T01:22:15;4.43;;;3.80;;
20324;SDS011;10320;49.482;11.256;2022-07-06T01:24:41;5.03;;;4.30;;
20324;SDS011;10320;49.482;11.256;2022-07-06T01:27:07;4.13;;;3.83;;
20324;SDS011;10320;49.482;11.256;2022-07-06T01:29:33;4.17;;;3.83;;
20324;SDS011;10320;49.482;11.256;2022-07-06T01:32:00;5.20;;;4.20;;
20324;SDS011;10320;49.482;11.256;2022-07-06T01:34:26;4.30;;;4.00;;
20324;SDS011;10320;49.482;11.256;2022-07-06T01:36:52;4.30;;;3.97;;
20324;SDS011;10320;49.482;11.256;2022-07-06T01:39:18;4.70;;;4.30;;
20324;SDS011;10320;49.482;11.256;2022-07-06T01:41:44;4.97;;;4.43;;
20324;SDS011;10320;49.482;11.256;2022-07-06T01:44:11;4.30;;;3.90;;
20324;SDS011;10320;49.482;11.256;2022-07-06T01:46:37;4.13;;;3.83;;
20324;SDS011;10320;49.482;11.256;2022-07-06T01:49:03;4.70;;;4.30;;
20324;SDS011;10320;49.482;11.256;2022-07-06T01:51:29;5.77;;;4.60;;
20324;SDS011;10320;49.482;11.256;2022-07-06T01:53:55;4.80;;;4.40;;
20324;SDS011;10320;49.482;11.256;2022-07-06T01:56:22;5.50;;;4.50;;
20324;SDS011;10320;49.482;11.256;2022-07-06T01:58:48;5.37;;;4.87;;
20324;SDS011;10320;49.482;11.256;2022-07-06T02:01:15;6.83;;;4.70;;
20324;SDS011;10320;49.482;11.256;2022-07-06T02:03:41;4.90;;;4.50;;
20324;SDS011;10320;49.482;11.256;2022-07-06T02:06:07;6.93;;;5.17;;
20324;SDS011;10320;49.482;11.256;2022-07-06T02:08:34;5.60;;;4.90;;
20324;SDS011;10320;49.482;11.256;2022-07-06T02:11:00;6.00;;;5.10;;
20324;SDS011;10320;49.482;11.256;2022-07-06T02:13:27;5.10;;;4.60;;
20324;SDS011;10320;49.482;11.256;2022-07-06T02:15:53;5.30;;;4.80;;
20324;SDS011;10320;49.482;11.256;2022-07-06T02:18:19;5.50;;;5.00;;
20324;SDS011;10320;49.482;11.256;2022-07-06T02:20:45;6.00;;;5.03;;
20324;SDS011;10320;49.482;11.256;2022-07-06T02:23:11;5.27;;;4.70;;
20324;SDS011;10320;49.482;11.256;2022-07-06T02:25:37;5.00;;;4.60;;
20324;SDS011;10320;49.482;11.256;2022-07-06T02:28:03;5.23;;;4.83;;
20324;SDS011;10320;49.482;11.256;2022-07-06T02:30:29;5.10;;;4.57;;
20324;SDS011;10320;49.482;11.256;2022-07-06T02:32:55;5.50;;;4.90;;
20324;SDS011;10320;49.482;11.256;2022-07-06T02:35:21;4.90;;;4.50;;
20324;SDS011;10320;49.482;11.256;2022-07-06T02:37:47;5.27;;;4.77;;
20324;SDS011;10320;49.482;11.256;2022-07-06T02:40:13;5.60;;;5.10;;
20324;SDS011;10320;49.482;11.256;2022-07-06T02:42:39;5.03;;;4.53;;
20324;SDS011;10320;49.482;11.256;2022-07-06T02:45:06;5.33;;;4.80;;
20324;SDS011;10320;49.482;11.256;2022-07-06T02:47:32;5.47;;;4.97;;
20324;SDS011;10320;49.482;11.256;2022-07-06T02:49:58;6.50;;;5.20;;
20324;SDS011;10320;49.482;11.256;2022-07-06T02:52:24;5.27;;;4.77;;
20324;SDS011;10320;49.482;11.256;2022-07-06T02:54:50;5.50;;;5.07;;
20324;SDS011;10320;49.482;11.256;2022-07-06T02:57:16;5.17;;;4.67;;
20324;SDS011;10320;49.482;11.256;2022-07-06T02:59:42;4.60;;;4.20;;
20324;SDS011;10320;49.482;11.256;2022-07-06T03:02:09;5.23;;;4.73;;
20324;SDS011;10320;49.482;11.256;2022-07-06T03:04:35;5.20;;;4.70;;
20324;SDS011;10320;49.482;11.256;2022-07-06T03:07:01;5.27;;;4.77;;
20324;SDS011;10320;49.482;11.256;2022-07-06T03:09:27;6.40;;;5.20;;
20324;SDS011;10320;49.482;11.256;2022-07-06T03:11:53;5.20;;;4.80;;
20324;SDS011;10320;49.482;11.256;2022-07-06T03:14:19;5.53;;;4.87;;
20324;SDS011;10320;49.482;11.256;2022-07-06T03:16:45;5.40;;;5.00;;
20324;SDS011;10320;49.482;11.256;2022-07-06T03:19:11;5.00;;;4.50;;
20324;SDS011;10320;49.482;11.256;2022-07-06T03:21:37;5.83;;;4.63;;
20324;SDS011;10320;49.482;11.256;2022-07-06T03:24:03;4.73;;;4.17;;
20324;SDS011;10320;49.482;11.256;2022-07-06T03:26:30;5.20;;;4.80;;
20324;SDS011;10320;49.482;11.256;2022-07-06T03:28:56;5.27;;;4.87;;
20324;SDS011;10320;49.482;11.256;2022-07-06T03:31:22;5.23;;;4.83;;
20324;SDS011;10320;49.482;11.256;2022-07-06T03:33:48;5.63;;;5.23;;
20324;SDS011;10320;49.482;11.256;2022-07-06T03:36:14;5.40;;;4.80;;
20324;SDS011;10320;49.482;11.256;2022-07-06T03:38:40;5.10;;;4.60;;
20324;SDS011;10320;49.482;11.256;2022-07-06T03:41:06;6.20;;;4.70;;
20324;SDS011;10320;49.482;11.256;2022-07-06T03:43:32;7.53;;;4.97;;
20324;SDS011;10320;49.482;11.256;2022-07-06T03:45:58;5.23;;;4.80;;
20324;SDS011;10320;49.482;11.256;2022-07-06T03:48:24;5.77;;;4.60;;
20324;SDS011;10320;49.482;11.256;2022-07-06T03:50:50;4.90;;;4.50;;
20324;SDS011;10320;49.482;11.256;2022-07-06T03:53:16;4.90;;;4.50;;
20324;SDS011;10320;49.482;11.256;2022-07-06T03:55:42;5.50;;;4.50;;
20324;SDS011;10320;49.482;11.256;2022-07-06T03:58:28;5.03;;;4.63;;
20324;SDS011;10320;49.482;11.256;2022-07-06T04:00:54;5.27;;;4.80;;
20324;SDS011;10320;49.482;11.256;2022-07-06T04:03:20;4.93;;;4.53;;
20324;SDS011;10320;49.482;11.256;2022-07-06T04:05:46;5.50;;;5.00;;
20324;SDS011;10320;49.482;11.256;2022-07-06T04:08:12;5.20;;;4.70;;
20324;SDS011;10320;49.482;11.256;2022-07-06T04:10:38;5.57;;;4.90;;
20324;SDS011;10320;49.482;11.256;2022-07-06T04:13:04;4.80;;;4.40;;
20324;SDS011;10320;49.482;11.256;2022-07-06T04:15:30;5.50;;;4.80;;
20324;SDS011;10320;49.482;11.256;2022-07-06T04:17:56;5.37;;;4.87;;
20324;SDS011;10320;49.482;11.256;2022-07-06T04:20:23;7.33;;;5.13;;
20324;SDS011;10320;49.482;11.256;2022-07-06T04:22:50;5.43;;;4.93;;
20324;SDS011;10320;49.482;11.256;2022-07-06T04:25:18;5.70;;;4.90;;
20324;SDS011;10320;49.482;11.256;2022-07-06T04:27:44;6.77;;;5.40;;
20324;SDS011;10320;49.482;11.256;2022-07-06T04:30:10;5.40;;;5.00;;
20324;SDS011;10320;49.482;11.256;2022-07-06T04:32:36;5.50;;;5.00;;
20324;SDS011;10320;49.482;11.256;2022-07-06T04:35:03;5.77;;;5.00;;
20324;SDS011;10320;49.482;11.256;2022-07-06T04:37:29;5.47;;;4.90;;
20324;SDS011;10320;49.482;11.256;2022-07-06T04:39:55;5.07;;;4.67;;
20324;SDS011;10320;49.482;11.256;2022-07-06T04:42:21;5.63;;;5.13;;
20324;SDS011;10320;49.482;11.256;2022-07-06T04:44:47;6.53;;;4.50;;
20324;SDS011;10320;49.482;11.256;2022-07-06T04:47:14;5.17;;;4.70;;
20324;SDS011;10320;49.482;11.256;2022-07-06T04:49:40;4.90;;;4.50;;
20324;SDS011;10320;49.482;11.256;2022-07-06T04:52:06;5.07;;;4.57;;
20324;SDS011;10320;49.482;11.256;2022-07-06T04:54:33;4.90;;;4.50;;
20324;SDS011;10320;49.482;11.256;2022-07-06T04:56:59;4.73;;;4.20;;
20324;SDS011;10320;49.482;11.256;2022-07-06T04:59:25;4.93;;;4.53;;
20324;SDS011;10320;49.482;11.256;2022-07-06T05:01:51;4.60;;;4.30;;
20324;SDS011;10320;49.482;11.256;2022-07-06T05:04:17;6.00;;;4.80;;
20324;SDS011;10320;49.482;11.256;2022-07-06T05:06:46;5.23;;;4.70;;
20324;SDS011;10320;49.482;11.256;2022-07-06T05:09:12;4.60;;;4.20;;
20324;SDS011;10320;49.482;11.256;2022-07-06T05:11:38;4.83;;;4.17;;
20324;SDS011;10320;49.482;11.256;2022-07-06T05:14:04;5.70;;;4.90;;
20324;SDS011;10320;49.482;11.256;2022-07-06T05:16:31;4.80;;;4.40;;
20324;SDS011;10320;49.482;11.256;2022-07-06T05:18:57;4.93;;;4.50;;
20324;SDS011;10320;49.482;11.256;2022-07-06T05:21:23;5.37;;;4.87;;
20324;SDS011;10320;49.482;11.256;2022-07-06T05:23:49;5.43;;;4.87;;
20324;SDS011;10320;49.482;11.256;2022-07-06T05:26:15;5.68;;;4.60;;
20324;SDS011;10320;49.482;11.256;2022-07-06T05:28:41;5.25;;;4.75;;
20324;SDS011;10320;49.482;11.256;2022-07-06T05:31:07;5.47;;;4.65;;
20324;SDS011;10320;49.482;11.256;2022-07-06T05:33:34;6.53;;;4.72;;
20324;SDS011;10320;49.482;11.256;2022-07-06T05:36:00;7.45;;;4.70;;
20324;SDS011;10320;49.482;11.256;2022-07-06T05:38:26;6.10;;;4.70;;
20324;SDS011;10320;49.482;11.256;2022-07-06T05:40:52;5.35;;;4.82;;
20324;SDS011;10320;49.482;11.256;2022-07-06T05:43:18;4.80;;;4.30;;
20324;SDS011;10320;49.482;11.256;2022-07-06T05:45:44;6.70;;;4.50;;
20324;SDS011;10320;49.482;11.256;2022-07-06T05:48:10;5.00;;;4.45;;
20324;SDS011;10320;49.482;11.256;2022-07-06T05:50:54;5.13;;;4.10;;
20324;SDS011;10320;49.482;11.256;2022-07-06T05:53:20;7.07;;;4.07;;
20324;SDS011;10320;49.482;11.256;2022-07-06T05:55:47;5.00;;;4.07;;
20324;SDS011;10320;49.482;11.256;2022-07-06T05:58:13;4.82;;;3.88;;
20324;SDS011;10320;49.482;11.256;2022-07-06T06:00:39;4.68;;;3.92;;
20324;SDS011;10320;49.482;11.256;2022-07-06T06:03:05;9.15;;;4.40;;
20324;SDS011;10320;49.482;11.256;2022-07-06T06:05:31;4.50;;;3.78;;
20324;SDS011;10320;49.482;11.256;2022-07-06T06:07:57;5.10;;;4.10;;
20324;SDS011;10320;49.482;11.256;2022-07-06T06:10:23;6.45;;;3.92;;
20324;SDS011;10320;49.482;11.256;2022-07-06T06:12:50;4.75;;;3.00;;
20324;SDS011;10320;49.482;11.256;2022-07-06T06:15:16;4.88;;;3.67;;
20324;SDS011;10320;49.482;11.256;2022-07-06T06:17:43;4.85;;;2.95;;
20324;SDS011;10320;49.482;11.256;2022-07-06T06:20:10;6.35;;;3.50;;
20324;SDS011;10320;49.482;11.256;2022-07-06T06:25:15;3.33;;;3.03;;
20324;SDS011;10320;49.482;11.256;2022-07-06T06:27:42;2.95;;;2.75;;
20324;SDS011;10320;49.482;11.256;2022-07-06T06:30:08;4.43;;;2.60;;
20324;SDS011;10320;49.482;11.256;2022-07-06T06:32:34;2.75;;;2.50;;
20324;SDS011;10320;49.482;11.256;2022-07-06T06:35:00;3.85;;;2.20;;
20324;SDS011;10320;49.482;11.256;2022-07-06T06:37:26;3.95;;;2.42;;
20324;SDS011;10320;49.482;11.256;2022-07-06T06:39:52;3.90;;;2.80;;
20324;SDS011;10320;49.482;11.256;2022-07-06T06:42:18;2.30;;;2.20;;
20324;SDS011;10320;49.482;11.256;2022-07-06T06:44:44;2.38;;;2.13;;
20324;SDS011;10320;49.482;11.256;2022-07-06T06:47:10;3.88;;;2.63;;
20324;SDS011;10320;49.482;11.256;2022-07-06T06:49:36;3.33;;;2.30;;
20324;SDS011;10320;49.482;11.256;2022-07-06T06:52:02;2.10;;;2.00;;
20324;SDS011;10320;49.482;11.256;2022-07-06T06:54:28;2.58;;;2.03;;
20324;SDS011;10320;49.482;11.256;2022-07-06T06:56:54;2.97;;;2.17;;
20324;SDS011;10320;49.482;11.256;2022-07-06T06:59:20;3.55;;;2.58;;
20324;SDS011;10320;49.482;11.256;2022-07-06T07:01:46;3.28;;;2.20;;
20324;SDS011;10320;49.482;11.256;2022-07-06T07:04:12;2.20;;;2.00;;
20324;SDS011;10320;49.482;11.256;2022-07-06T07:06:39;2.78;;;2.38;;
20324;SDS011;10320;49.482;11.256;2022-07-06T07:09:05;2.42;;;2.00;;
20324;SDS011;10320;49.482;11.256;2022-07-06T07:11:31;3.03;;;2.20;;
20324;SDS011;10320;49.482;11.256;2022-07-06T07:13:57;4.00;;;2.42;;
20324;SDS011;10320;49.482;11.256;2022-07-06T07:16:24;2.33;;;2.05;;
20324;SDS011;10320;49.482;11.256;2022-07-06T07:18:50;3.00;;;2.50;;
20324;SDS011;10320;49.482;11.256;2022-07-06T07:21:17;2.35;;;2.13;;
20324;SDS011;10320;49.482;11.256;2022-07-06T07:23:43;2.90;;;2.08;;
20324;SDS011;10320;49.482;11.256;2022-07-06T07:26:09;4.63;;;2.20;;
20324;SDS011;10320;49.482;11.256;2022-07-06T07:28:35;2.85;;;1.92;;
20324;SDS011;10320;49.482;11.256;2022-07-06T07:31:01;6.75;;;2.30;;
20324;SDS011;10320;49.482;11.256;2022-07-06T07:33:27;2.65;;;2.20;;
20324;SDS011;10320;49.482;11.256;2022-07-06T07:35:53;3.85;;;2.33;;
20324;SDS011;10320;49.482;11.256;2022-07-06T07:38:19;3.63;;;2.20;;
20324;SDS011;10320;49.482;11.256;2022-07-06T07:40:45;3.08;;;1.95;;
20324;SDS011;10320;49.482;11.256;2022-07-06T07:43:11;3.42;;;2.30;;
20324;SDS011;10320;49.482;11.256;2022-07-06T07:45:37;2.38;;;2.17;;
20324;SDS011;10320;49.482;11.256;2022-07-06T07:48:03;2.38;;;2.17;;
20324;SDS011;10320;49.482;11.256;2022-07-06T07:50:29;3.58;;;2.30;;
20324;SDS011;10320;49.482;11.256;2022-07-06T07:52:55;2.70;;;2.28;;
20324;SDS011;10320;49.482;11.256;2022-07-06T07:55:21;4.10;;;2.00;;
20324;SDS011;10320;49.482;11.256;2022-07-06T07:57:47;3.53;;;2.22;;
20324;SDS011;10320;49.482;11.256;2022-07-06T08:00:13;3.03;;;2.20;;
20324;SDS011;10320;49.482;11.256;2022-07-06T08:02:40;2.80;;;2.25;;
20324;SDS011;10320;49.482;11.256;2022-07-06T08:05:06;3.28;;;2.17;;
20324;SDS011;10320;49.482;11.256;2022-07-06T08:07:32;2.45;;;2.20;;
20324;SDS011;10320;49.482;11.256;2022-07-06T08:09:58;3.03;;;2.35;;
20324;SDS011;10320;49.482;11.256;2022-07-06T08:12:24;3.10;;;2.20;;
20324;SDS011;10320;49.482;11.256;2022-07-06T08:14:51;3.45;;;2.10;;
20324;SDS011;10320;49.482;11.256;2022-07-06T08:17:17;2.35;;;2.00;;
20324;SDS011;10320;49.482;11.256;2022-07-06T08:19:43;5.47;;;2.17;;
20324;SDS011;10320;49.482;11.256;2022-07-06T08:22:09;4.00;;;2.05;;
20324;SDS011;10320;49.482;11.256;2022-07-06T08:24:35;3.20;;;2.30;;
20324;SDS011;10320;49.482;11.256;2022-07-06T08:27:01;2.25;;;2.05;;
20324;SDS011;10320;49.482;11.256;2022-07-06T08:29:28;1.90;;;1.80;;
20324;SDS011;10320;49.482;11.256;2022-07-06T08:31:54;2.92;;;2.00;;
20324;SDS011;10320;49.482;11.256;2022-07-06T08:34:20;3.17;;;2.08;;
20324;SDS011;10320;49.482;11.256;2022-07-06T08:36:47;2.95;;;2.00;;
20324;SDS011;10320;49.482;11.256;2022-07-06T08:39:13;1.90;;;1.80;;
20324;SDS011;10320;49.482;11.256;2022-07-06T08:41:40;1.80;;;1.70;;
20324;SDS011;10320;49.482;11.256;2022-07-06T08:44:07;2.92;;;1.85;;
20324;SDS011;10320;49.482;11.256;2022-07-06T08:46:33;2.90;;;2.20;;
20324;SDS011;10320;49.482;11.256;2022-07-06T08:49:00;1.80;;;1.70;;
20324;SDS011;10320;49.482;11.256;2022-07-06T08:51:27;6.15;;;2.17;;
20324;SDS011;10320;49.482;11.256;2022-07-06T08:53:53;3.35;;;2.00;;
20324;SDS011;10320;49.482;11.256;2022-07-06T08:56:20;2.67;;;1.90;;
20324;SDS011;10320;49.482;11.256;2022-07-06T08:58:53;2.53;;;2.22;;
20324;SDS011;10320;49.482;11.256;2022-07-06T09:01:20;2.08;;;1.70;;
20324;SDS011;10320;49.482;11.256;2022-07-06T09:03:47;2.05;;;1.90;;
20324;SDS011;10320;49.482;11.256;2022-07-06T09:06:16;5.00;;;1.83;;
20324;SDS011;10320;49.482;11.256;2022-07-06T09:08:42;2.63;;;1.95;;
20324;SDS011;10320;49.482;11.256;2022-07-06T09:11:09;2.50;;;1.90;;
20324;SDS011;10320;49.482;11.256;2022-07-06T09:13:35;2.60;;;1.92;;
20324;SDS011;10320;49.482;11.256;2022-07-06T09:16:11;2.63;;;2.03;;
20324;SDS011;10320;49.482;11.256;2022-07-06T09:18:38;3.03;;;1.85;;
20324;SDS011;10320;49.482;11.256;2022-07-06T09:21:05;2.72;;;1.90;;
20324;SDS011;10320;49.482;11.256;2022-07-06T09:23:31;2.10;;;2.00;;
20324;SDS011;10320;49.482;11.256;2022-07-06T09:25:57;2.17;;;1.80;;
20324;SDS011;10320;49.482;11.256;2022-07-06T09:28:25;3.28;;;2.40;;
20324;SDS011;10320;49.482;11.256;2022-07-06T09:31:08;1.80;;;1.70;;
20324;SDS011;10320;49.482;11.256;2022-07-06T09:33:34;4.75;;;2.13;;
20324;SDS011;10320;49.482;11.256;2022-07-06T09:36:00;3.10;;;1.75;;
20324;SDS011;10320;49.482;11.256;2022-07-06T09:38:27;2.05;;;1.73;;
20324;SDS011;10320;49.482;11.256;2022-07-06T09:40:53;2.75;;;2.30;;
20324;SDS011;10320;49.482;11.256;2022-07-06T09:43:23;3.22;;;2.10;;
20324;SDS011;10320;49.482;11.256;2022-07-06T09:45:50;3.47;;;1.80;;
20324;SDS011;10320;49.482;11.256;2022-07-06T09:48:17;2.83;;;1.95;;
20324;SDS011;10320;49.482;11.256;2022-07-06T09:50:45;2.03;;;1.90;;
20324;SDS011;10320;49.482;11.256;2022-07-06T09:53:12;3.53;;;1.95;;
20324;SDS011;10320;49.482;11.256;2022-07-06T09:55:38;2.45;;;1.50;;
20324;SDS011;10320;49.482;11.256;2022-07-06T09:58:04;3.63;;;2.10;;
20324;SDS011;10320;49.482;11.256;2022-07-06T10:00:30;4.03;;;2.10;;
20324;SDS011;10320;49.482;11.256;2022-07-06T10:02:57;2.65;;;2.00;;
20324;SDS011;10320;49.482;11.256;2022-07-06T10:05:23;2.08;;;1.73;;
20324;SDS011;10320;49.482;11.256;2022-07-06T10:07:54;3.55;;;1.75;;
20324;SDS011;10320;49.482;11.256;2022-07-06T10:10:21;2.03;;;1.83;;
20324;SDS011;10320;49.482;11.256;2022-07-06T10:12:48;1.80;;;1.70;;
20324;SDS011;10320;49.482;11.256;2022-07-06T10:15:15;3.63;;;1.73;;
20324;SDS011;10320;49.482;11.256;2022-07-06T10:17:43;3.70;;;1.75;;
20324;SDS011;10320;49.482;11.256;2022-07-06T10:20:09;2.25;;;1.75;;
20324;SDS011;10320;49.482;11.256;2022-07-06T10:22:37;2.28;;;1.85;;
20324;SDS011;10320;49.482;11.256;2022-07-06T10:25:04;2.40;;;1.60;;
20324;SDS011;10320;49.482;11.256;2022-07-06T10:27:32;3.03;;;1.73;;
20324;SDS011;10320;49.482;11.256;2022-07-06T10:29:58;1.95;;;1.80;;
20324;SDS011;10320;49.482;11.256;2022-07-06T10:32:24;2.17;;;1.67;;
20324;SDS011;10320;49.482;11.256;2022-07-06T10:34:51;1.63;;;1.52;;
20324;SDS011;10320;49.482;11.256;2022-07-06T10:37:24;2.80;;;1.80;;
20324;SDS011;10320;49.482;11.256;2022-07-06T10:39:51;5.60;;;1.90;;
20324;SDS011;10320;49.482;11.256;2022-07-06T10:42:43;2.30;;;1.90;;
20324;SDS011;10320;49.482;11.256;2022-07-06T10:45:13;1.85;;;1.70;;
20324;SDS011;10320;49.482;11.256;2022-07-06T10:47:42;2.28;;;1.85;;
20324;SDS011;10320;49.482;11.256;2022-07-06T10:50:08;2.50;;;1.90;;
20324;SDS011;10320;49.482;11.256;2022-07-06T10:55:28;2.28;;;1.80;;
20324;SDS011;10320;49.482;11.256;2022-07-06T10:57:55;3.60;;;1.70;;
20324;SDS011;10320;49.482;11.256;2022-07-06T11:00:21;2.25;;;1.60;;
20324;SDS011;10320;49.482;11.256;2022-07-06T11:02:47;2.53;;;1.73;;
20324;SDS011;10320;49.482;11.256;2022-07-06T11:05:58;2.28;;;1.75;;
20324;SDS011;10320;49.482;11.256;2022-07-06T11:08:02;2.10;;;1.90;;
20324;SDS011;10320;49.482;11.256;2022-07-06T11:10:28;2.55;;;2.00;;
20324;SDS011;10320;49.482;11.256;2022-07-06T11:13:24;3.30;;;1.95;;
20324;SDS011;10320;49.482;11.256;2022-07-06T11:15:50;2.70;;;2.08;;
20324;SDS011;10320;49.482;11.256;2022-07-06T11:18:18;2.90;;;1.83;;
20324;SDS011;10320;49.482;11.256;2022-07-06T11:21:10;2.58;;;1.90;;
20324;SDS011;10320;49.482;11.256;2022-07-06T11:23:30;3.65;;;1.90;;
20324;SDS011;10320;49.482;11.256;2022-07-06T11:25:57;2.03;;;1.80;;
20324;SDS011;10320;49.482;11.256;2022-07-06T11:28:23;4.05;;;2.20;;
20324;SDS011;10320;49.482;11.256;2022-07-06T11:30:51;1.65;;;1.55;;
20324;SDS011;10320;49.482;11.256;2022-07-06T11:33:30;2.88;;;1.92;;
20324;SDS011;10320;49.482;11.256;2022-07-06T11:38:41;2.05;;;1.60;;
20324;SDS011;10320;49.482;11.256;2022-07-06T11:41:08;2.38;;;1.60;;
20324;SDS011;10320;49.482;11.256;2022-07-06T11:43:34;2.75;;;1.98;;
20324;SDS011;10320;49.482;11.256;2022-07-06T11:46:00;2.95;;;1.70;;
20324;SDS011;10320;49.482;11.256;2022-07-06T11:48:26;2.67;;;1.80;;
20324;SDS011;10320;49.482;11.256;2022-07-06T11:53:24;2.10;;;1.90;;
20324;SDS011;10320;49.482;11.256;2022-07-06T11:55:51;2.88;;;2.00;;
20324;SDS011;10320;49.482;11.256;2022-07-06T11:58:20;4.03;;;1.90;;
20324;SDS011;10320;49.482;11.256;2022-07-06T12:01:09;2.17;;;1.73;;
20324;SDS011;10320;49.482;11.256;2022-07-06T12:03:36;3.08;;;1.80;;
20324;SDS011;10320;49.482;11.256;2022-07-06T12:06:03;2.35;;;1.83;;
20324;SDS011;10320;49.482;11.256;2022-07-06T12:08:29;2.22;;;1.70;;
20324;SDS011;10320;49.482;11.256;2022-07-06T12:10:55;3.30;;;2.10;;
20324;SDS011;10320;49.482;11.256;2022-07-06T12:13:22;1.88;;;1.70;;
20324;SDS011;10320;49.482;11.256;2022-07-06T12:15:49;2.95;;;1.90;;
20324;SDS011;10320;49.482;11.256;2022-07-06T12:18:15;2.35;;;1.80;;
20324;SDS011;10320;49.482;11.256;2022-07-06T12:20:41;2.47;;;1.70;;
20324;SDS011;10320;49.482;11.256;2022-07-06T12:23:07;3.38;;;1.83;;
20324;SDS011;10320;49.482;11.256;2022-07-06T12:25:34;2.10;;;1.52;;
20324;SDS011;10320;49.482;11.256;2022-07-06T12:28:00;2.55;;;1.60;;
20324;SDS011;10320;49.482;11.256;2022-07-06T12:30:26;3.38;;;1.65;;
20324;SDS011;10320;49.482;11.256;2022-07-06T12:35:38;1.85;;;1.70;;
20324;SDS011;10320;49.482;11.256;2022-07-06T12:38:05;2.55;;;1.80;;
20324;SDS011;10320;49.482;11.256;2022-07-06T12:40:31;2.30;;;1.60;;
20324;SDS011;10320;49.482;11.256;2022-07-06T12:42:57;2.25;;;1.58;;
20324;SDS011;10320;49.482;11.256;2022-07-06T12:45:27;2.88;;;1.70;;
20324;SDS011;10320;49.482;11.256;2022-07-06T12:48:00;2.17;;;1.60;;
20324;SDS011;10320;49.482;11.256;2022-07-06T12:50:33;4.45;;;1.60;;
20324;SDS011;10320;49.482;11.256;2022-07-06T12:53:00;2.20;;;1.60;;
20324;SDS011;10320;49.482;11.256;2022-07-06T12:55:27;1.50;;;1.40;;
20324;SDS011;10320;49.482;11.256;2022-07-06T12:57:53;2.35;;;1.70;;
20324;SDS011;10320;49.482;11.256;2022-07-06T13:00:20;1.60;;;1.38;;
20324;SDS011;10320;49.482;11.256;2022-07-06T13:02:49;2.38;;;1.40;;
20324;SDS011;10320;49.482;11.256;2022-07-06T13:05:21;1.80;;;1.30;;
20324;SDS011;10320;49.482;11.256;2022-07-06T13:07:54;1.55;;;1.30;;
20324;SDS011;10320;49.482;11.256;2022-07-06T13:10:21;2.05;;;1.38;;
20324;SDS011;10320;49.482;11.256;2022-07-06T13:12:47;2.40;;;1.40;;
20324;SDS011;10320;49.482;11.256;2022-07-06T13:15:14;3.35;;;1.30;;
20324;SDS011;10320;49.482;11.256;2022-07-06T13:17:41;1.77;;;1.40;;
20324;SDS011;10320;49.482;11.256;2022-07-06T13:20:08;1.92;;;1.30;;
20324;SDS011;10320;49.482;11.256;2022-07-06T13:22:34;2.22;;;1.30;;
20324;SDS011;10320;49.482;11.256;2022-07-06T13:25:01;2.33;;;1.30;;
20324;SDS011;10320;49.482;11.256;2022-07-06T13:27:27;1.60;;;1.50;;
20324;SDS011;10320;49.482;11.256;2022-07-06T13:29:53;1.38;;;1.27;;
20324;SDS011;10320;49.482;11.256;2022-07-06T13:32:19;3.10;;;1.67;;
20324;SDS011;10320;49.482;11.256;2022-07-06T13:34:46;2.78;;;1.50;;
20324;SDS011;10320;49.482;11.256;2022-07-06T13:37:12;2.28;;;1.33;;
20324;SDS011;10320;49.482;11.256;2022-07-06T13:39:38;2.10;;;1.42;;
20324;SDS011;10320;49.482;11.256;2022-07-06T13:42:04;3.28;;;1.40;;
20324;SDS011;10320;49.482;11.256;2022-07-06T13:44:32;3.03;;;1.40;;
20324;SDS011;10320;49.482;11.256;2022-07-06T13:46:58;2.17;;;1.13;;
20324;SDS011;10320;49.482;11.256;2022-07-06T13:49:24;3.28;;;1.30;;
20324;SDS011;10320;49.482;11.256;2022-07-06T13:51:50;2.75;;;1.23;;
20324;SDS011;10320;49.482;11.256;2022-07-06T13:54:16;2.25;;;1.20;;
20324;SDS011;10320;49.482;11.256;2022-07-06T13:56:42;1.27;;;1.10;;
20324;SDS011;10320;49.482;11.256;2022-07-06T13:59:08;2.30;;;1.38;;
20324;SDS011;10320;49.482;11.256;2022-07-06T14:01:35;1.35;;;1.25;;
20324;SDS011;10320;49.482;11.256;2022-07-06T14:04:01;2.83;;;1.27;;
20324;SDS011;10320;49.482;11.256;2022-07-06T14:06:27;1.80;;;1.48;;
20324;SDS011;10320;49.482;11.256;2022-07-06T14:08:53;1.30;;;1.20;;
20324;SDS011;10320;49.482;11.256;2022-07-06T14:11:19;2.75;;;1.52;;
20324;SDS011;10320;49.482;11.256;2022-07-06T14:13:45;2.10;;;1.50;;
20324;SDS011;10320;49.482;11.256;2022-07-06T14:16:11;1.73;;;1.30;;
20324;SDS011;10320;49.482;11.256;2022-07-06T14:18:37;2.10;;;1.40;;
20324;SDS011;10320;49.482;11.256;2022-07-06T14:21:04;1.92;;;1.40;;
20324;SDS011;10320;49.482;11.256;2022-07-06T14:23:30;1.83;;;1.40;;
20324;SDS011;10320;49.482;11.256;2022-07-06T14:25:56;1.50;;;1.23;;
20324;SDS011;10320;49.482;11.256;2022-07-06T14:28:22;3.95;;;1.40;;
20324;SDS011;10320;49.482;11.256;2022-07-06T14:30:48;2.80;;;1.58;;
20324;SDS011;10320;49.482;11.256;2022-07-06T14:33:14;1.90;;;1.40;;
20324;SDS011;10320;49.482;11.256;2022-07-06T14:35:45;2.42;;;1.38;;
20324;SDS011;10320;49.482;11.256;2022-07-06T14:38:12;1.75;;;1.20;;
20324;SDS011;10320;49.482;11.256;2022-07-06T14:40:39;4.45;;;1.65;;
20324;SDS011;10320;49.482;11.256;2022-07-06T14:43:05;2.83;;;1.17;;
20324;SDS011;10320;49.482;11.256;2022-07-06T14:45:31;1.52;;;1.25;;